sensor_id;sensor_type;location;lat;lon;timestamp;pressure;altitude;pressure_sealevel;temperature;humidity
21361;BME280;10839;43.206;23.550;2023-10-31T00:02:16;97163.38;;;21.32;39.04
21361;BME280;10839;43.206;23.550;2023-10-31T00:04:42;97152.53;;;21.10;39.74
21361;BME280;10839;43.206;23.550;2023-10-31T00:07:08;97155.00;;;21.12;40.42
21361;BME280;10839;43.206;23.550;2023-10-31T00:09:33;97158.03;;;21.15;41.04
21361;BME280;10839;43.206;23.550;2023-10-31T00:11:59;97153.31;;;21.06;41.88
21361;BME280;10839;43.206;23.550;2023-10-31T00:14:25;97144.03;;;21.12;40.93
21361;BME280;10839;43.206;23.550;2023-10-31T00:16:51;97146.69;;;21.02;41.36
21361;BME280;10839;43.206;23.550;2023-10-31T00:19:17;97148.56;;;20.70;42.99
21361;BME280;10839;43.206;23.550;2023-10-31T00:21:42;97136.16;;;20.89;39.69
21361;BME280;10839;43.206;23.550;2023-10-31T00:24:08;97140.19;;;20.81;41.31
21361;BME280;10839;43.206;23.550;2023-10-31T00:26:34;97152.34;;;20.64;42.08
21361;BME280;10839;43.206;23.550;2023-10-31T00:29:00;97132.03;;;20.60;42.00
21361;BME280;10839;43.206;23.550;2023-10-31T00:31:25;97149.47;;;20.80;41.74
21361;BME280;10839;43.206;23.550;2023-10-31T00:33:51;97142.88;;;21.03;41.32
21361;BME280;10839;43.206;23.550;2023-10-31T00:36:17;97139.06;;;21.04;40.86
21361;BME280;10839;43.206;23.550;2023-10-31T00:38:43;97124.06;;;20.85;41.77
21361;BME280;10839;43.206;23.550;2023-10-31T00:41:08;97116.91;;;20.79;42.83
21361;BME280;10839;43.206;23.550;2023-10-31T00:43:34;97129.13;;;20.98;42.36
21361;BME280;10839;43.206;23.550;2023-10-31T00:46:03;97112.59;;;20.88;42.64
21361;BME280;10839;43.206;23.550;2023-10-31T00:48:29;97118.56;;;20.80;42.75
21361;BME280;10839;43.206;23.550;2023-10-31T00:50:54;97109.34;;;20.86;41.76
21361;BME280;10839;43.206;23.550;2023-10-31T00:53:20;97107.88;;;21.05;41.69
21361;BME280;10839;43.206;23.550;2023-10-31T00:55:46;97097.88;;;20.89;42.20
21361;BME280;10839;43.206;23.550;2023-10-31T00:58:12;97113.03;;;20.75;42.73
21361;BME280;10839;43.206;23.550;2023-10-31T01:00:38;97101.16;;;20.91;41.97
21361;BME280;10839;43.206;23.550;2023-10-31T01:03:04;97103.81;;;20.81;42.37
21361;BME280;10839;43.206;23.550;2023-10-31T01:05:30;97111.97;;;20.76;42.18
21361;BME280;10839;43.206;23.550;2023-10-31T01:07:55;97091.69;;;20.72;42.00
21361;BME280;10839;43.206;23.550;2023-10-31T01:10:21;97093.72;;;20.06;45.31
21361;BME280;10839;43.206;23.550;2023-10-31T01:12:47;97093.63;;;20.45;43.14
21361;BME280;10839;43.206;23.550;2023-10-31T01:15:13;97097.91;;;20.36;43.52
21361;BME280;10839;43.206;23.550;2023-10-31T01:17:39;97091.75;;;20.23;43.23
21361;BME280;10839;43.206;23.550;2023-10-31T01:20:05;97098.47;;;19.89;43.44
21361;BME280;10839;43.206;23.550;2023-10-31T01:22:31;97089.56;;;20.20;42.30
21361;BME280;10839;43.206;23.550;2023-10-31T01:24:57;97092.06;;;20.54;40.96
21361;BME280;10839;43.206;23.550;2023-10-31T01:27:23;97084.41;;;20.51;41.29
21361;BME280;10839;43.206;23.550;2023-10-31T01:29:49;97084.38;;;20.77;40.18
21361;BME280;10839;43.206;23.550;2023-10-31T01:32:14;97087.31;;;20.71;41.20
21361;BME280;10839;43.206;23.550;2023-10-31T01:34:40;97086.97;;;20.36;42.58
21361;BME280;10839;43.206;23.550;2023-10-31T01:37:06;97100.69;;;20.41;41.82
21361;BME280;10839;43.206;23.550;2023-10-31T01:39:32;97096.66;;;20.21;43.10
21361;BME280;10839;43.206;23.550;2023-10-31T01:41:57;97103.41;;;19.71;44.11
21361;BME280;10839;43.206;23.550;2023-10-31T01:44:23;97073.50;;;19.59;43.76
21361;BME280;10839;43.206;23.550;2023-10-31T01:46:50;97096.41;;;19.58;43.65
21361;BME280;10839;43.206;23.550;2023-10-31T01:49:16;97088.72;;;19.55;44.21
21361;BME280;10839;43.206;23.550;2023-10-31T01:51:42;97086.69;;;19.46;44.37
21361;BME280;10839;43.206;23.550;2023-10-31T01:54:10;97092.69;;;19.09;46.39
21361;BME280;10839;43.206;23.550;2023-10-31T01:56:36;97096.66;;;19.02;46.83
21361;BME280;10839;43.206;23.550;2023-10-31T01:59:05;97107.88;;;19.22;46.69
21361;BME280;10839;43.206;23.550;2023-10-31T02:01:32;97119.97;;;19.09;46.80
21361;BME280;10839;43.206;23.550;2023-10-31T02:04:01;97103.28;;;18.73;47.41
21361;BME280;10839;43.206;23.550;2023-10-31T02:06:28;97130.19;;;18.53;48.78
21361;BME280;10839;43.206;23.550;2023-10-31T02:08:56;97116.50;;;18.08;50.63
21361;BME280;10839;43.206;23.550;2023-10-31T02:11:22;97111.31;;;17.55;52.40
21361;BME280;10839;43.206;23.550;2023-10-31T02:13:48;97114.75;;;17.51;53.28
21361;BME280;10839;43.206;23.550;2023-10-31T02:16:14;97092.91;;;17.00;55.10
21361;BME280;10839;43.206;23.550;2023-10-31T02:18:39;97116.53;;;17.45;54.09
21361;BME280;10839;43.206;23.550;2023-10-31T02:21:05;97101.63;;;17.36;54.44
21361;BME280;10839;43.206;23.550;2023-10-31T02:23:31;97112.97;;;17.10;55.19
21361;BME280;10839;43.206;23.550;2023-10-31T02:25:57;97107.28;;;16.77;55.88
21361;BME280;10839;43.206;23.550;2023-10-31T02:28:23;97103.53;;;16.78;56.89
21361;BME280;10839;43.206;23.550;2023-10-31T02:30:53;97105.91;;;16.86;56.74
21361;BME280;10839;43.206;23.550;2023-10-31T02:33:20;97098.00;;;17.08;56.09
21361;BME280;10839;43.206;23.550;2023-10-31T02:35:47;97097.34;;;17.40;54.98
21361;BME280;10839;43.206;23.550;2023-10-31T02:38:13;97098.94;;;17.02;56.76
21361;BME280;10839;43.206;23.550;2023-10-31T02:40:39;97092.66;;;17.24;56.45
21361;BME280;10839;43.206;23.550;2023-10-31T02:43:04;97096.53;;;17.40;56.03
21361;BME280;10839;43.206;23.550;2023-10-31T02:45:32;97108.22;;;17.40;55.68
21361;BME280;10839;43.206;23.550;2023-10-31T02:47:59;97100.22;;;17.22;56.45
21361;BME280;10839;43.206;23.550;2023-10-31T02:50:25;97091.00;;;17.23;56.40
21361;BME280;10839;43.206;23.550;2023-10-31T02:52:51;97102.56;;;17.30;56.73
21361;BME280;10839;43.206;23.550;2023-10-31T02:55:16;97084.59;;;17.29;56.36
21361;BME280;10839;43.206;23.550;2023-10-31T02:57:42;97090.13;;;18.25;52.35
21361;BME280;10839;43.206;23.550;2023-10-31T03:00:09;97098.66;;;17.38;56.32
21361;BME280;10839;43.206;23.550;2023-10-31T03:02:35;97084.97;;;17.33;55.96
21361;BME280;10839;43.206;23.550;2023-10-31T03:05:01;97091.59;;;17.14;56.67
21361;BME280;10839;43.206;23.550;2023-10-31T03:07:27;97086.28;;;17.07;57.20
21361;BME280;10839;43.206;23.550;2023-10-31T03:09:53;97089.22;;;17.29;56.51
21361;BME280;10839;43.206;23.550;2023-10-31T03:12:19;97089.78;;;17.42;55.06
21361;BME280;10839;43.206;23.550;2023-10-31T03:14:45;97089.34;;;17.22;55.92
21361;BME280;10839;43.206;23.550;2023-10-31T03:17:11;97090.53;;;17.49;55.71
21361;BME280;10839;43.206;23.550;2023-10-31T03:19:37;97086.97;;;17.14;56.97
21361;BME280;10839;43.206;23.550;2023-10-31T03:22:03;97095.03;;;16.86;58.36
21361;BME280;10839;43.206;23.550;2023-10-31T03:24:29;97082.03;;;16.88;58.30
21361;BME280;10839;43.206;23.550;2023-10-31T03:26:55;97079.31;;;16.88;58.19
21361;BME280;10839;43.206;23.550;2023-10-31T03:29:20;97074.25;;;16.80;58.52
21361;BME280;10839;43.206;23.550;2023-10-31T03:31:46;97058.38;;;16.77;58.55
21361;BME280;10839;43.206;23.550;2023-10-31T03:34:12;97062.19;;;16.76;58.93
21361;BME280;10839;43.206;23.550;2023-10-31T03:36:38;97060.75;;;16.85;58.03
21361;BME280;10839;43.206;23.550;2023-10-31T03:39:04;97059.56;;;17.04;57.46
21361;BME280;10839;43.206;23.550;2023-10-31T03:41:30;97055.91;;;16.99;57.34
21361;BME280;10839;43.206;23.550;2023-10-31T03:43:55;97026.94;;;17.04;56.62
21361;BME280;10839;43.206;23.550;2023-10-31T03:46:21;97040.22;;;17.52;55.25
21361;BME280;10839;43.206;23.550;2023-10-31T03:48:47;97046.28;;;17.31;54.95
21361;BME280;10839;43.206;23.550;2023-10-31T03:51:13;97051.09;;;17.40;54.91
21361;BME280;10839;43.206;23.550;2023-10-31T03:53:38;97035.53;;;17.75;52.84
21361;BME280;10839;43.206;23.550;2023-10-31T03:56:04;97046.00;;;18.12;51.35
21361;BME280;10839;43.206;23.550;2023-10-31T03:58:30;97042.44;;;17.66;53.94
21361;BME280;10839;43.206;23.550;2023-10-31T04:00:57;97054.56;;;17.47;54.54
21361;BME280;10839;43.206;23.550;2023-10-31T04:03:23;97039.53;;;17.45;53.90
21361;BME280;10839;43.206;23.550;2023-10-31T04:05:49;97028.88;;;17.32;54.71
21361;BME280;10839;43.206;23.550;2023-10-31T04:08:15;97030.22;;;17.29;54.90
21361;BME280;10839;43.206;23.550;2023-10-31T04:10:40;97036.47;;;17.41;54.20
21361;BME280;10839;43.206;23.550;2023-10-31T04:13:06;97036.50;;;17.69;52.85
21361;BME280;10839;43.206;23.550;2023-10-31T04:15:32;97030.84;;;18.16;50.58
21361;BME280;10839;43.206;23.550;2023-10-31T04:18:00;97026.22;;;18.00;51.97
21361;BME280;10839;43.206;23.550;2023-10-31T04:20:26;97031.13;;;17.86;52.68
21361;BME280;10839;43.206;23.550;2023-10-31T04:22:51;97026.56;;;17.63;53.40
21361;BME280;10839;43.206;23.550;2023-10-31T04:25:17;97039.97;;;17.53;54.41
21361;BME280;10839;43.206;23.550;2023-10-31T04:27:43;97029.38;;;17.29;56.44
21361;BME280;10839;43.206;23.550;2023-10-31T04:30:09;97037.19;;;17.14;56.87
21361;BME280;10839;43.206;23.550;2023-10-31T04:32:35;97038.75;;;17.10;57.07
21361;BME280;10839;43.206;23.550;2023-10-31T04:35:01;97043.50;;;16.91;58.22
21361;BME280;10839;43.206;23.550;2023-10-31T04:37:26;97012.16;;;17.00;57.38
21361;BME280;10839;43.206;23.550;2023-10-31T04:39:52;97029.09;;;16.79;58.54
21361;BME280;10839;43.206;23.550;2023-10-31T04:42:18;97039.22;;;16.95;56.89
21361;BME280;10839;43.206;23.550;2023-10-31T04:44:46;97024.72;;;17.52;54.41
21361;BME280;10839;43.206;23.550;2023-10-31T04:47:12;97017.00;;;18.34;49.13
21361;BME280;10839;43.206;23.550;2023-10-31T04:49:37;97022.91;;;17.98;52.61
21361;BME280;10839;43.206;23.550;2023-10-31T04:52:03;97044.25;;;17.38;55.36
21361;BME280;10839;43.206;23.550;2023-10-31T04:54:29;97019.28;;;17.80;52.41
21361;BME280;10839;43.206;23.550;2023-10-31T04:56:55;97030.84;;;18.16;51.19
21361;BME280;10839;43.206;23.550;2023-10-31T04:59:21;97047.00;;;18.06;52.04
21361;BME280;10839;43.206;23.550;2023-10-31T05:01:50;97032.16;;;17.57;54.04
21361;BME280;10839;43.206;23.550;2023-10-31T05:04:20;97023.53;;;17.88;51.95
21361;BME280;10839;43.206;23.550;2023-10-31T05:06:46;97025.94;;;18.46;49.91
21361;BME280;10839;43.206;23.550;2023-10-31T05:09:13;97033.03;;;18.47;49.70
21361;BME280;10839;43.206;23.550;2023-10-31T05:11:39;97021.94;;;19.03;46.88
21361;BME280;10839;43.206;23.550;2023-10-31T05:14:08;97012.47;;;18.89;47.14
21361;BME280;10839;43.206;23.550;2023-10-31T05:16:43;97043.09;;;19.72;46.01
21361;BME280;10839;43.206;23.550;2023-10-31T05:19:10;97015.28;;;20.28;45.37
21361;BME280;10839;43.206;23.550;2023-10-31T05:21:36;97019.22;;;20.38;45.90
21361;BME280;10839;43.206;23.550;2023-10-31T05:24:02;97033.03;;;20.53;45.30
21361;BME280;10839;43.206;23.550;2023-10-31T05:26:28;97013.84;;;21.21;42.08
21361;BME280;10839;43.206;23.550;2023-10-31T05:28:56;97023.38;;;21.70;42.63
21361;BME280;10839;43.206;23.550;2023-10-31T05:31:25;97027.13;;;22.31;41.58
21361;BME280;10839;43.206;23.550;2023-10-31T05:33:51;97038.94;;;22.46;40.68
21361;BME280;10839;43.206;23.550;2023-10-31T05:36:22;97027.44;;;22.59;40.56
21361;BME280;10839;43.206;23.550;2023-10-31T05:38:48;97035.63;;;22.34;41.27
21361;BME280;10839;43.206;23.550;2023-10-31T05:41:14;97037.88;;;22.72;39.98
21361;BME280;10839;43.206;23.550;2023-10-31T05:43:40;97038.28;;;23.70;38.53
21361;BME280;10839;43.206;23.550;2023-10-31T05:46:06;97031.44;;;24.26;37.11
21361;BME280;10839;43.206;23.550;2023-10-31T05:48:45;97031.03;;;24.86;36.52
21361;BME280;10839;43.206;23.550;2023-10-31T05:51:16;97044.50;;;24.00;37.19
21361;BME280;10839;43.206;23.550;2023-10-31T05:53:46;97030.47;;;24.02;37.87
21361;BME280;10839;43.206;23.550;2023-10-31T05:56:14;97013.50;;;24.67;36.31
21361;BME280;10839;43.206;23.550;2023-10-31T05:58:41;97030.97;;;24.91;35.39
21361;BME280;10839;43.206;23.550;2023-10-31T06:01:07;97039.16;;;26.80;32.33
21361;BME280;10839;43.206;23.550;2023-10-31T06:03:36;97039.59;;;27.79;31.35
21361;BME280;10839;43.206;23.550;2023-10-31T06:06:02;97044.34;;;28.90;29.77
21361;BME280;10839;43.206;23.550;2023-10-31T06:08:28;97055.81;;;28.97;29.36
21361;BME280;10839;43.206;23.550;2023-10-31T06:10:56;97057.91;;;30.45;27.89
21361;BME280;10839;43.206;23.550;2023-10-31T06:13:22;97060.50;;;30.33;28.21
21361;BME280;10839;43.206;23.550;2023-10-31T06:15:47;97056.66;;;30.12;28.34
21361;BME280;10839;43.206;23.550;2023-10-31T06:18:13;97055.28;;;30.40;27.90
21361;BME280;10839;43.206;23.550;2023-10-31T06:20:39;97060.09;;;31.96;25.89
21361;BME280;10839;43.206;23.550;2023-10-31T06:23:05;97037.28;;;32.61;24.72
21361;BME280;10839;43.206;23.550;2023-10-31T06:25:31;97043.81;;;31.69;26.11
21361;BME280;10839;43.206;23.550;2023-10-31T06:27:57;97042.81;;;31.65;25.82
21361;BME280;10839;43.206;23.550;2023-10-31T06:30:23;97041.78;;;31.78;25.64
21361;BME280;10839;43.206;23.550;2023-10-31T06:32:51;97035.72;;;32.22;25.05
21361;BME280;10839;43.206;23.550;2023-10-31T06:35:17;97023.78;;;32.42;24.56
21361;BME280;10839;43.206;23.550;2023-10-31T06:37:43;97039.19;;;32.69;24.26
21361;BME280;10839;43.206;23.550;2023-10-31T06:40:09;97026.41;;;32.89;24.57
21361;BME280;10839;43.206;23.550;2023-10-31T06:42:35;97015.91;;;33.72;23.67
21361;BME280;10839;43.206;23.550;2023-10-31T06:45:01;97027.84;;;34.41;22.49
21361;BME280;10839;43.206;23.550;2023-10-31T06:47:27;97022.09;;;33.77;23.27
21361;BME280;10839;43.206;23.550;2023-10-31T06:49:53;97024.16;;;33.68;23.20
21361;BME280;10839;43.206;23.550;2023-10-31T06:52:19;97016.38;;;33.86;23.06
21361;BME280;10839;43.206;23.550;2023-10-31T06:54:44;97012.53;;;33.66;23.22
21361;BME280;10839;43.206;23.550;2023-10-31T06:57:10;97012.34;;;34.07;23.13
21361;BME280;10839;43.206;23.550;2023-10-31T06:59:36;97008.19;;;33.44;23.54
21361;BME280;10839;43.206;23.550;2023-10-31T07:02:02;97013.50;;;33.94;23.15
21361;BME280;10839;43.206;23.550;2023-10-31T07:04:27;97009.31;;;34.12;23.11
21361;BME280;10839;43.206;23.550;2023-10-31T07:06:53;97011.44;;;34.51;22.28
21361;BME280;10839;43.206;23.550;2023-10-31T07:09:26;97013.91;;;32.95;23.66
21361;BME280;10839;43.206;23.550;2023-10-31T07:11:52;97010.72;;;33.94;23.10
21361;BME280;10839;43.206;23.550;2023-10-31T07:14:18;96980.00;;;33.94;22.55
21361;BME280;10839;43.206;23.550;2023-10-31T07:16:44;96989.47;;;33.45;23.13
21361;BME280;10839;43.206;23.550;2023-10-31T07:19:10;96985.59;;;33.94;22.84
21361;BME280;10839;43.206;23.550;2023-10-31T07:21:36;96994.63;;;33.91;22.23
21361;BME280;10839;43.206;23.550;2023-10-31T07:24:02;96961.13;;;31.61;24.18
21361;BME280;10839;43.206;23.550;2023-10-31T07:26:28;96974.19;;;30.21;25.36
21361;BME280;10839;43.206;23.550;2023-10-31T07:28:54;96956.94;;;28.84;24.39
21361;BME280;10839;43.206;23.550;2023-10-31T07:31:20;96961.66;;;30.66;21.43
21361;BME280;10839;43.206;23.550;2023-10-31T07:33:45;96951.72;;;30.48;22.48
21361;BME280;10839;43.206;23.550;2023-10-31T07:36:11;96947.13;;;29.70;24.17
21361;BME280;10839;43.206;23.550;2023-10-31T07:38:37;96952.97;;;30.93;23.44
21361;BME280;10839;43.206;23.550;2023-10-31T07:41:03;96947.84;;;31.20;22.02
21361;BME280;10839;43.206;23.550;2023-10-31T07:43:29;96929.72;;;29.86;24.11
21361;BME280;10839;43.206;23.550;2023-10-31T07:45:55;96925.97;;;30.08;23.75
21361;BME280;10839;43.206;23.550;2023-10-31T07:48:20;96938.94;;;30.47;22.41
21361;BME280;10839;43.206;23.550;2023-10-31T07:50:46;96928.94;;;29.55;23.04
21361;BME280;10839;43.206;23.550;2023-10-31T07:53:12;96916.50;;;30.94;20.97
21361;BME280;10839;43.206;23.550;2023-10-31T07:55:38;96917.22;;;30.57;19.96
21361;BME280;10839;43.206;23.550;2023-10-31T07:58:03;96926.13;;;31.05;20.06
21361;BME280;10839;43.206;23.550;2023-10-31T08:00:29;96913.53;;;32.33;18.89
21361;BME280;10839;43.206;23.550;2023-10-31T08:02:56;96910.41;;;32.76;18.90
21361;BME280;10839;43.206;23.550;2023-10-31T08:05:22;96915.44;;;30.36;20.74
21361;BME280;10839;43.206;23.550;2023-10-31T08:07:48;96903.50;;;30.44;21.37
21361;BME280;10839;43.206;23.550;2023-10-31T08:10:13;96904.16;;;31.96;19.49
21361;BME280;10839;43.206;23.550;2023-10-31T08:12:39;96906.72;;;33.28;18.52
21361;BME280;10839;43.206;23.550;2023-10-31T08:15:05;96917.81;;;34.21;18.49
21361;BME280;10839;43.206;23.550;2023-10-31T08:17:31;96916.09;;;33.69;22.55
21361;BME280;10839;43.206;23.550;2023-10-31T08:19:57;96917.59;;;33.66;23.44
21361;BME280;10839;43.206;23.550;2023-10-31T08:22:23;96921.81;;;33.72;23.82
21361;BME280;10839;43.206;23.550;2023-10-31T08:24:49;96909.69;;;33.68;23.97
21361;BME280;10839;43.206;23.550;2023-10-31T08:27:14;96896.47;;;33.32;24.29
21361;BME280;10839;43.206;23.550;2023-10-31T08:29:41;96897.28;;;33.09;24.12
21361;BME280;10839;43.206;23.550;2023-10-31T08:32:06;96911.94;;;33.18;23.70
21361;BME280;10839;43.206;23.550;2023-10-31T08:34:32;96910.06;;;33.10;24.29
21361;BME280;10839;43.206;23.550;2023-10-31T08:36:58;96909.16;;;33.30;23.92
21361;BME280;10839;43.206;23.550;2023-10-31T08:39:26;96912.19;;;33.25;24.12
21361;BME280;10839;43.206;23.550;2023-10-31T08:41:52;96900.50;;;33.43;24.09
21361;BME280;10839;43.206;23.550;2023-10-31T08:44:19;96914.75;;;33.30;24.27
21361;BME280;10839;43.206;23.550;2023-10-31T08:46:44;96901.03;;;33.25;24.04
21361;BME280;10839;43.206;23.550;2023-10-31T08:49:10;96898.72;;;33.27;23.97
21361;BME280;10839;43.206;23.550;2023-10-31T08:51:36;96899.91;;;32.93;23.85
21361;BME280;10839;43.206;23.550;2023-10-31T08:54:02;96895.03;;;32.70;23.78
21361;BME280;10839;43.206;23.550;2023-10-31T08:56:28;96889.00;;;32.26;23.81
21361;BME280;10839;43.206;23.550;2023-10-31T08:58:54;96876.97;;;32.88;22.83
21361;BME280;10839;43.206;23.550;2023-10-31T09:01:20;96879.31;;;33.30;22.82
21361;BME280;10839;43.206;23.550;2023-10-31T09:03:45;96869.09;;;33.46;22.88
21361;BME280;10839;43.206;23.550;2023-10-31T09:06:11;96877.72;;;32.97;23.21
21361;BME280;10839;43.206;23.550;2023-10-31T09:08:37;96881.75;;;33.56;22.86
21361;BME280;10839;43.206;23.550;2023-10-31T09:11:04;96887.09;;;34.09;22.75
21361;BME280;10839;43.206;23.550;2023-10-31T09:13:31;96875.00;;;33.69;22.91
21361;BME280;10839;43.206;23.550;2023-10-31T09:16:00;96875.69;;;33.30;23.54
21361;BME280;10839;43.206;23.550;2023-10-31T09:18:26;96863.41;;;33.67;23.13
21361;BME280;10839;43.206;23.550;2023-10-31T09:20:52;96872.47;;;34.00;22.48
21361;BME280;10839;43.206;23.550;2023-10-31T09:23:18;96884.56;;;33.80;22.63
21361;BME280;10839;43.206;23.550;2023-10-31T09:25:44;96871.31;;;33.65;22.39
21361;BME280;10839;43.206;23.550;2023-10-31T09:28:10;96875.19;;;33.16;23.16
21361;BME280;10839;43.206;23.550;2023-10-31T09:30:36;96860.81;;;33.38;23.01
21361;BME280;10839;43.206;23.550;2023-10-31T09:33:02;96853.38;;;33.30;23.20
21361;BME280;10839;43.206;23.550;2023-10-31T09:35:28;96857.34;;;33.77;22.81
21361;BME280;10839;43.206;23.550;2023-10-31T09:37:54;96848.38;;;33.72;22.99
21361;BME280;10839;43.206;23.550;2023-10-31T09:40:20;96854.53;;;33.41;23.25
21361;BME280;10839;43.206;23.550;2023-10-31T09:42:46;96834.31;;;33.56;23.47
21361;BME280;10839;43.206;23.550;2023-10-31T09:45:14;96842.69;;;33.44;23.45
21361;BME280;10839;43.206;23.550;2023-10-31T09:47:41;96832.22;;;33.65;23.75
21361;BME280;10839;43.206;23.550;2023-10-31T09:50:10;96840.78;;;33.84;23.50
21361;BME280;10839;43.206;23.550;2023-10-31T09:52:37;96840.78;;;33.36;24.05
21361;BME280;10839;43.206;23.550;2023-10-31T09:55:04;96837.44;;;33.54;23.90
21361;BME280;10839;43.206;23.550;2023-10-31T09:57:31;96839.41;;;33.66;24.00
21361;BME280;10839;43.206;23.550;2023-10-31T09:59:57;96824.25;;;33.79;24.22
21361;BME280;10839;43.206;23.550;2023-10-31T10:02:23;96821.41;;;33.51;24.35
21361;BME280;10839;43.206;23.550;2023-10-31T10:04:49;96824.28;;;33.07;24.85
21361;BME280;10839;43.206;23.550;2023-10-31T10:07:16;96813.81;;;32.92;24.81
21361;BME280;10839;43.206;23.550;2023-10-31T10:09:44;96809.63;;;32.98;25.42
21361;BME280;10839;43.206;23.550;2023-10-31T10:12:12;96809.41;;;33.51;24.28
21361;BME280;10839;43.206;23.550;2023-10-31T10:14:39;96800.47;;;32.97;24.94
21361;BME280;10839;43.206;23.550;2023-10-31T10:17:20;96805.56;;;32.51;26.02
21361;BME280;10839;43.206;23.550;2023-10-31T10:19:47;96789.22;;;33.42;25.58
21361;BME280;10839;43.206;23.550;2023-10-31T10:22:13;96786.16;;;32.99;26.09
21361;BME280;10839;43.206;23.550;2023-10-31T10:24:41;96783.28;;;32.63;26.21
21361;BME280;10839;43.206;23.550;2023-10-31T10:27:08;96783.59;;;32.94;26.01
21361;BME280;10839;43.206;23.550;2023-10-31T10:29:34;96782.44;;;33.07;26.08
21361;BME280;10839;43.206;23.550;2023-10-31T10:32:00;96783.97;;;32.60;26.54
21361;BME280;10839;43.206;23.550;2023-10-31T10:34:26;96780.09;;;32.19;26.40
21361;BME280;10839;43.206;23.550;2023-10-31T10:36:53;96784.31;;;32.25;26.37
21361;BME280;10839;43.206;23.550;2023-10-31T10:39:22;96774.16;;;31.88;26.72
21361;BME280;10839;43.206;23.550;2023-10-31T10:41:53;96764.22;;;32.20;26.79
21361;BME280;10839;43.206;23.550;2023-10-31T10:44:35;96762.72;;;32.22;26.82
21361;BME280;10839;43.206;23.550;2023-10-31T10:47:04;96765.88;;;32.66;26.11
21361;BME280;10839;43.206;23.550;2023-10-31T10:49:33;96748.22;;;32.29;26.60
21361;BME280;10839;43.206;23.550;2023-10-31T10:54:45;96758.22;;;30.89;28.04
21361;BME280;10839;43.206;23.550;2023-10-31T10:59:48;96746.41;;;30.55;28.09
21361;BME280;10839;43.206;23.550;2023-10-31T11:02:18;96729.38;;;30.10;28.57
21361;BME280;10839;43.206;23.550;2023-10-31T11:04:44;96733.63;;;30.16;29.02
21361;BME280;10839;43.206;23.550;2023-10-31T11:07:10;96730.97;;;30.37;28.53
21361;BME280;10839;43.206;23.550;2023-10-31T11:09:40;96724.81;;;30.69;28.66
21361;BME280;10839;43.206;23.550;2023-10-31T11:12:10;96725.84;;;30.56;28.96
21361;BME280;10839;43.206;23.550;2023-10-31T11:14:37;96719.09;;;30.28;29.30
21361;BME280;10839;43.206;23.550;2023-10-31T11:17:18;96718.75;;;30.21;29.68
21361;BME280;10839;43.206;23.550;2023-10-31T11:19:47;96713.63;;;30.40;28.86
21361;BME280;10839;43.206;23.550;2023-10-31T11:22:13;96708.19;;;30.52;28.48
21361;BME280;10839;43.206;23.550;2023-10-31T11:24:39;96694.00;;;30.91;28.42
21361;BME280;10839;43.206;23.550;2023-10-31T11:27:07;96691.97;;;31.00;28.50
21361;BME280;10839;43.206;23.550;2023-10-31T11:29:35;96684.78;;;30.99;28.72
21361;BME280;10839;43.206;23.550;2023-10-31T11:32:01;96679.50;;;29.76;29.74
21361;BME280;10839;43.206;23.550;2023-10-31T11:34:29;96665.56;;;28.99;30.37
21361;BME280;10839;43.206;23.550;2023-10-31T11:37:18;96656.47;;;29.16;30.26
21361;BME280;10839;43.206;23.550;2023-10-31T11:42:40;96655.50;;;29.37;30.07
21361;BME280;10839;43.206;23.550;2023-10-31T11:45:10;96655.16;;;29.13;30.63
21361;BME280;10839;43.206;23.550;2023-10-31T11:47:49;96652.78;;;28.64;31.33
21361;BME280;10839;43.206;23.550;2023-10-31T11:50:16;96640.78;;;28.94;31.00
21361;BME280;10839;43.206;23.550;2023-10-31T11:52:43;96636.34;;;28.67;31.30
21361;BME280;10839;43.206;23.550;2023-10-31T11:55:12;96639.88;;;28.12;31.79
21361;BME280;10839;43.206;23.550;2023-10-31T11:57:39;96632.56;;;28.16;32.02
21361;BME280;10839;43.206;23.550;2023-10-31T12:00:06;96630.59;;;27.86;32.32
21361;BME280;10839;43.206;23.550;2023-10-31T12:02:39;96629.66;;;28.21;32.22
21361;BME280;10839;43.206;23.550;2023-10-31T12:05:09;96636.81;;;28.61;31.80
21361;BME280;10839;43.206;23.550;2023-10-31T12:07:43;96628.06;;;28.93;32.03
21361;BME280;10839;43.206;23.550;2023-10-31T12:10:09;96628.78;;;28.12;33.56
21361;BME280;10839;43.206;23.550;2023-10-31T12:12:35;96637.75;;;28.48;32.95
21361;BME280;10839;43.206;23.550;2023-10-31T12:15:19;96637.63;;;28.22;33.05
21361;BME280;10839;43.206;23.550;2023-10-31T12:17:45;96628.47;;;28.05;33.80
21361;BME280;10839;43.206;23.550;2023-10-31T12:20:11;96627.72;;;27.68;34.40
21361;BME280;10839;43.206;23.550;2023-10-31T12:22:37;96623.16;;;27.64;34.69
21361;BME280;10839;43.206;23.550;2023-10-31T12:25:04;96628.13;;;27.53;34.76
21361;BME280;10839;43.206;23.550;2023-10-31T12:27:44;96603.44;;;26.77;35.55
21361;BME280;10839;43.206;23.550;2023-10-31T12:30:11;96597.69;;;26.38;36.31
21361;BME280;10839;43.206;23.550;2023-10-31T12:32:38;96590.56;;;26.59;36.09
21361;BME280;10839;43.206;23.550;2023-10-31T12:35:05;96580.81;;;26.26;36.03
21361;BME280;10839;43.206;23.550;2023-10-31T12:37:31;96573.03;;;25.74;37.41
21361;BME280;10839;43.206;23.550;2023-10-31T12:39:59;96566.63;;;25.92;37.53
21361;BME280;10839;43.206;23.550;2023-10-31T12:42:31;96568.75;;;25.95;33.15
21361;BME280;10839;43.206;23.550;2023-10-31T12:44:58;96554.06;;;26.13;26.66
21361;BME280;10839;43.206;23.550;2023-10-31T12:47:24;96569.47;;;25.87;25.30
21361;BME280;10839;43.206;23.550;2023-10-31T12:50:12;96564.59;;;26.24;33.29
21361;BME280;10839;43.206;23.550;2023-10-31T12:52:51;96564.75;;;26.41;34.53
21361;BME280;10839;43.206;23.550;2023-10-31T12:55:25;96574.44;;;26.53;34.98
21361;BME280;10839;43.206;23.550;2023-10-31T12:57:51;96561.41;;;26.31;26.24